Date,TemperatureHighF,TemperatureAvgF,TemperatureLowF,DewpointHighF,DewpointAvgF,DewpointLowF,HumidityHigh,HumidityAvg,HumidityLow,PressureMaxIn,PressureMinIn,WindSpeedMaxMPH,WindSpeedAvgMPH,GustSpeedMaxMPH,PrecipitationSumIn
2013-1-1,63.1,42.2,31.6,49.9,36.2,23.6,99,85,26,30.20,30.10,11,2,11,0.01
2013-1-2,71.4,43.6,29.8,49.5,31.6,0.7,100,78,10,30.16,30.03,7,1,7,0.00
2013-1-3,65.3,41.6,29.3,53.0,36.9,16.5,99,89,22,30.18,30.08,8,1,8,0.00
2013-1-4,69.6,45.0,32.9,53.3,38.0,6.8,100,85,14,30.20,30.11,8,1,8,0.01
2013-1-5,75.6,49.7,39.2,56.7,49.3,38.9,100,99,29,30.22,29.77,11,1,11,0.34
2013-1-6,55.0,45.9,35.6,53.2,45.6,35.3,99,99,91,30.01,29.87,17,2,17,0.14
2013-1-7,60.4,43.5,33.3,56.1,42.7,33.0,100,97,79,30.07,29.96,10,1,10,0.00
2013-1-8,69.8,47.7,37.2,60.3,46.5,37.0,100,96,58,30.02,29.91,8,1,8,0.01
2013-1-9,58.5,46.9,37.4,58.2,46.6,37.1,100,99,93,29.95,29.81,17,2,17,0.00
2013-1-10,54.9,41.2,31.5,49.6,36.3,29.4,99,86,41,30.01,29.86,21,3,21,0.01
2013-1-11,57.7,40.8,29.3,45.6,37.2,29.1,99,89,45,30.07,29.94,14,2,14,0.01
2013-1-12,54.1,39.3,28.8,50.1,35.3,13.2,100,89,26,30.06,29.94,9,1,9,0.01
2013-1-13,55.2,35.9,25.3,43.6,23.8,-11.6,100,76,10,30.07,29.96,17,2,17,0.01
2013-1-14,57.7,36.1,24.3,35.3,20.4,-11.0,100,73,10,30.22,30.01,10,2,10,0.00
2013-1-15,58.5,38.0,26.2,43.2,26.3,-7.8,99,76,10,30.28,30.20,8,1,8,0.00
2013-1-16,65.3,41.7,28.0,43.6,30.1,0.9,100,77,11,30.23,30.04,8,1,8,0.00
2013-1-17,80.6,48.4,32.2,49.2,31.2,2.5,99,74,10,30.04,29.91,8,1,8,0.00
2013-1-18,79.0,49.2,34.9,47.8,33.4,2.5,100,74,10,30.00,29.91,8,1,8,0.00
2013-1-19,81.1,50.6,34.9,48.1,32.9,3.3,100,72,11,30.01,29.93,7,1,7,0.00
2013-1-20,81.0,50.2,33.3,44.3,28.1,-1.0,100,66,10,30.01,29.88,8,1,8,0.00
2013-1-21,81.5,50.5,34.0,42.8,29.2,0.9,100,65,10,29.96,29.85,8,1,8,0.00
2013-1-22,75.6,50.6,34.5,45.6,29.8,-0.2,100,62,10,29.91,29.81,8,1,8,0.00
2013-1-23,61.9,52.6,46.8,54.6,47.0,38.4,99,82,59,29.89,29.77,7,1,7,0.01
2013-1-24,61.3,53.9,49.1,61.1,53.6,48.8,99,99,99,29.98,29.84,5,0,5,0.05
2013-1-25,74.8,58.4,49.5,68.8,57.4,49.2,100,97,72,29.99,29.82,10,1,10,0.00
2013-1-26,64.2,51.7,38.1,62.7,47.9,37.9,99,89,50,29.91,29.80,17,3,17,0.01
2013-1-27,38.1,32.9,32.0,37.9,32.6,31.8,99,99,99,29.94,29.89,2,0,2,0.00
2013-1-28,32.2,32.2,32.2,31.9,31.9,31.9,99,99,99,29.94,29.94,0,0,0,0.00
2013-1-29,32.2,32.2,32.2,31.9,31.9,31.9,99,99,99,29.94,29.94,0,0,0,0.00
2013-1-30,32.2,32.2,32.2,31.9,31.9,31.9,99,99,99,29.94,29.94,0,0,0,0.00
2013-1-31,92.7,66.8,48.4,92.7,45.1,22.8,76,44,10,29.72,29.61,11,3,11,0.00
2013-2-1,75.7,53.7,36.5,60.2,47.4,33.0,100,86,22,30.01,29.73,11,2,11,10.35
2013-2-2,64.4,48.5,41.0,60.1,48.2,40.6,100,99,82,30.05,29.97,8,1,8,0.00
2013-2-3,75.6,42.8,37.4,43.1,42.4,37.1,99,99,29,30.01,29.72,4,0,4,0.00
2013-2-4,75.6,45.9,34.0,59.5,45.1,33.7,99,98,23,29.95,29.80,10,2,10,10.37
2013-2-5,60.3,46.8,36.9,56.9,46.3,36.6,99,98,79,30.00,29.91,11,1,11,0.01
2013-2-6,67.5,45.0,34.3,54.8,42.8,33.9,100,93,47,30.05,29.96,10,1,10,0.00
2013-2-7,59.4,44.8,34.7,56.5,43.2,34.5,100,95,58,30.03,29.85,12,2,12,0.04
2013-2-8,59.5,43.5,33.3,49.8,39.5,29.1,100,89,34,29.85,29.78,9,2,14,0.06
2013-2-9,60.6,41.0,28.6,53.1,37.7,21.6,100,90,35,29.95,29.83,10,2,10,0.00
2013-2-10,59.0,41.9,29.3,54.9,38.6,26.3,100,91,35,29.96,29.85,9,2,9,0.01
2013-2-11,64.6,44.1,32.5,54.2,37.7,12.9,99,84,24,30.09,29.90,11,2,11,0.00
2013-2-12,63.0,44.6,34.0,56.1,41.1,33.7,100,90,45,30.20,30.09,11,2,11,0.01
2013-2-13,68.0,45.2,32.2,54.6,41.8,31.9,100,91,39,30.19,30.06,9,2,9,0.00
2013-2-14,77.7,50.7,34.9,60.2,41.8,25.6,100,81,19,30.08,29.96,8,1,8,0.00
2013-2-15,84.9,56.4,37.9,59.7,32.4,2.6,100,65,10,30.08,30.01,9,1,9,0.00
2013-2-16,82.9,56.1,41.7,57.2,36.5,2.5,100,71,10,30.05,29.88,8,2,8,0.00
2013-2-17,62.2,47.4,37.8,55.6,46.4,37.5,100,97,69,29.91,29.81,11,2,11,0.00
2013-2-18,53.2,45.8,36.0,51.7,44.6,35.7,99,96,80,29.90,29.82,11,2,11,0.01
2013-2-19,75.6,43.4,30.6,45.2,43.0,30.3,99,99,29,30.08,29.73,4,0,4,0.39
2013-2-20,68.4,43.1,28.9,49.6,35.4,1.6,100,83,11,30.20,29.96,11,2,11,0.01
2013-2-21,68.4,45.8,32.7,53.1,32.2,-2.9,99,75,10,30.30,30.18,11,2,11,0.00
2013-2-22,69.8,46.0,32.4,54.7,42.1,32.1,100,89,43,30.38,30.29,11,2,11,0.00
2013-2-23,67.3,51.1,40.5,54.0,33.5,-2.9,99,68,10,30.38,30.24,18,3,18,0.00
2013-2-24,68.2,48.4,34.5,40.9,23.4,-6.6,100,55,10,30.38,30.27,12,3,12,0.00
2013-2-25,71.6,46.3,31.5,52.5,36.7,7.7,100,79,12,30.40,30.27,11,2,11,0.00
2013-2-26,75.9,47.8,32.4,54.5,32.0,0.7,99,72,10,30.33,30.22,11,2,11,0.00
2013-2-27,76.6,48.6,32.4,54.7,37.5,0.9,100,78,10,30.49,30.32,12,2,12,0.00
2013-2-28,77.9,51.9,37.4,59.4,45.8,35.1,99,85,26,30.57,30.47,11,2,11,0.00
2013-3-1,84.2,57.2,41.5,65.4,48.1,28.4,100,80,19,30.54,30.31,10,2,10,0.00
2013-3-2,77.4,55.6,46.0,65.0,48.6,23.0,99,84,19,30.35,30.19,11,2,11,0.00
2013-3-3,60.6,52.2,49.3,59.5,51.9,49.0,99,99,90,30.24,30.17,11,2,11,0.00
2013-3-4,59.7,50.9,45.5,55.1,50.0,44.9,100,97,81,30.27,30.18,13,2,13,0.00
2013-3-5,57.0,48.9,41.9,51.6,46.7,41.6,100,93,70,30.22,30.05,16,4,16,0.12
2013-3-6,59.4,49.8,38.1,55.1,48.1,37.9,100,95,64,30.22,30.05,21,3,21,0.18
2013-3-7,59.7,47.3,36.5,53.6,43.0,30.9,100,89,37,30.13,29.97,14,2,14,0.15
2013-3-8,64.9,50.6,41.0,56.7,44.6,23.6,100,84,25,30.21,29.94,22,4,22,0.04
2013-3-9,74.5,51.7,37.2,58.0,40.7,2.1,99,80,10,30.42,30.21,18,2,18,0.00
2013-3-10,69.8,49.0,35.1,57.6,46.5,34.8,99,92,53,30.47,30.37,10,2,10,0.00
2013-3-11,71.1,50.8,36.3,58.8,40.8,1.7,99,80,10,30.37,30.22,12,2,12,0.00
2013-3-12,50.7,42.0,39.6,50.4,41.8,39.3,99,99,99,30.27,30.23,2,0,2,0.00
2013-3-13,81.0,54.8,41.5,66.0,49.0,30.4,99,87,16,30.26,30.18,8,2,8,0.00
2013-3-14,70.2,53.6,41.0,60.4,51.9,40.7,100,95,67,30.28,30.19,11,2,11,0.00
2013-3-15,78.3,55.0,41.0,61.3,46.7,7.3,100,83,14,30.24,30.15,12,2,12,0.00
2013-3-16,76.3,54.4,43.9,60.8,51.4,43.6,99,92,45,30.22,30.14,14,3,14,0.00
2013-3-17,75.6,52.1,38.1,57.8,44.5,10.5,100,83,12,30.26,30.14,11,2,11,0.00
2013-3-18,65.7,49.4,37.0,55.4,46.8,36.8,100,92,57,30.25,30.15,14,2,14,0.00
2013-3-19,70.7,52.8,41.9,57.6,46.0,24.4,100,84,24,30.28,30.17,12,2,12,0.07
2013-3-20,66.2,55.7,50.2,61.6,50.6,5.3,100,89,17,30.25,30.19,11,2,11,0.01
2013-3-21,71.6,55.4,42.4,55.7,47.5,30.9,100,81,27,30.24,30.09,12,3,12,0.00
2013-3-22,78.8,52.6,36.0,57.8,29.6,-4.6,100,64,10,30.20,30.11,13,2,13,0.00
2013-3-23,78.4,51.6,34.5,52.6,33.9,-2.0,100,69,10,30.24,30.14,11,2,11,0.00
2013-3-24,74.5,51.1,35.8,55.5,42.2,17.3,100,80,17,30.22,30.08,10,2,10,0.00
2013-3-25,69.3,50.8,39.6,56.3,45.3,20.6,99,87,24,30.15,30.06,13,3,13,0.00
2013-3-26,64.9,51.3,41.2,58.0,48.7,40.9,100,92,52,30.14,30.06,15,3,15,0.00
2013-3-27,66.6,53.3,42.1,64.3,51.7,41.8,100,95,66,30.15,30.07,14,3,14,0.00
2013-3-28,54.3,54.3,54.1,54.0,54.0,53.9,99,99,99,30.15,30.14,3,0,3,0.01
2013-3-29,75.6,54.2,32.0,54.0,53.9,31.8,99,99,99,30.14,29.65,4,0,4,0.61
2013-3-30,68.5,56.4,50.9,61.6,54.2,47.5,100,94,50,29.96,29.84,15,4,15,0.11
2013-3-31,68.7,56.8,49.6,64.3,55.4,49.4,99,96,61,29.94,29.86,15,3,15,0.05
2013-4-1,66.4,56.9,47.5,62.3,55.0,47.2,99,94,68,30.01,29.90,14,3,14,0.17
2013-4-2,74.5,55.7,43.0,60.5,51.7,42.7,100,89,41,30.04,29.92,11,2,11,0.00
2013-4-3,76.5,55.1,48.9,62.6,53.3,48.5,100,95,52,29.98,29.86,14,3,14,0.00
2013-4-4,62.2,54.4,50.0,61.8,54.1,49.7,99,99,99,29.98,29.88,11,2,11,0.13
2013-4-5,67.6,57.1,47.7,63.6,55.6,47.4,99,95,70,30.04,29.96,14,3,14,0.00
2013-4-6,66.2,55.5,47.1,65.0,54.9,46.9,100,98,86,30.06,29.97,14,3,15,0.00
2013-4-7,70.9,56.9,49.6,63.0,55.2,49.4,100,95,60,30.03,29.75,16,4,16,0.07
2013-4-8,72.5,55.8,43.3,51.7,31.2,-1.4,100,61,10,29.85,29.67,24,6,24,0.07
2013-4-9,82.4,59.9,39.6,49.5,22.9,-1.2,99,51,10,29.91,29.82,23,5,23,0.00
2013-4-10,90.3,61.5,43.9,59.3,40.0,5.6,100,67,10,30.01,29.86,10,3,10,0.00
2013-4-11,75.4,57.3,45.7,58.7,51.3,41.8,99,85,34,29.94,29.71,13,3,13,0.00
2013-4-12,72.5,54.2,43.2,56.4,48.9,42.9,100,86,39,29.79,29.69,11,2,11,0.00
2013-4-13,74.5,55.2,44.1,59.3,48.7,28.9,100,84,23,29.78,29.67,11,3,11,0.00
2013-4-14,77.7,53.8,38.5,56.6,39.5,8.5,100,74,11,29.80,29.69,16,3,16,0.00
2013-4-15,62.2,52.2,42.3,50.4,36.1,7.3,99,66,16,29.81,29.72,24,6,24,0.01
2013-4-16,72.9,50.4,32.7,47.8,24.7,-4.8,100,59,10,29.97,29.80,24,4,24,0.00
2013-4-17,76.8,58.5,40.6,42.5,12.9,-4.6,88,32,10,30.09,29.96,24,5,24,0.00
2013-4-18,71.8,53.2,37.4,51.8,37.8,0.7,100,69,11,30.12,30.03,13,3,13,0.00
2013-4-19,73.4,54.6,39.6,56.5,43.3,9.7,100,75,18,30.10,29.93,11,3,11,0.00
2013-4-20,86.9,58.1,42.1,59.2,42.1,8.7,100,72,10,29.95,29.81,11,2,11,0.00
2013-4-21,90.0,60.1,41.9,62.7,40.4,7.0,99,69,10,29.87,29.76,10,2,10,0.00
2013-4-22,50.7,48.8,47.3,50.4,48.5,47.0,99,99,99,29.81,29.77,0,0,0,0.00
2013-4-23,59.9,52.6,48.6,56.9,52.0,48.3,99,98,89,29.83,29.73,14,4,14,0.00
2013-4-24,63.3,53.4,47.7,56.0,51.4,47.4,99,93,70,29.83,29.70,14,3,14,0.00
2013-4-25,68.4,55.8,45.5,56.4,50.9,45.2,99,86,48,29.98,29.83,13,3,13,0.00
2013-4-26,71.8,54.0,40.6,56.9,49.6,40.4,99,87,42,30.08,29.98,10,2,10,0.00
2013-4-27,71.2,55.6,46.4,58.0,51.4,46.1,99,88,49,30.08,29.93,8,3,8,0.00
2013-4-28,73.9,56.0,47.8,58.0,51.6,47.6,100,88,42,29.93,29.75,9,2,9,0.00
2013-4-29,87.3,60.0,46.2,65.7,50.2,40.0,100,79,19,29.75,29.62,8,2,8,0.00
2013-4-30,81.5,58.5,45.5,59.6,49.9,30.9,100,80,20,29.70,29.62,11,2,11,0.01
2013-5-1,68.9,54.2,44.1,57.2,51.4,43.8,100,91,52,29.94,29.70,13,3,13,0.00
2013-5-2,87.4,62.4,46.2,65.1,43.2,9.2,100,67,10,29.99,29.92,12,2,12,0.00
2013-5-3,84.0,63.1,47.3,55.7,38.4,8.7,100,62,10,29.95,29.66,12,2,12,0.00
2013-5-4,61.7,53.2,44.6,60.0,52.7,44.0,100,99,89,29.66,29.52,21,4,21,0.00
2013-5-5,69.3,57.2,48.9,57.3,52.6,38.7,100,87,37,29.67,29.49,15,3,15,0.00
2013-5-6,67.3,58.4,48.7,59.1,54.2,48.5,100,87,62,29.82,29.66,16,3,16,0.00
2013-5-7,69.1,59.2,52.0,59.3,54.2,49.0,99,86,52,29.92,29.80,15,3,15,0.00
2013-5-8,67.1,56.0,51.6,57.9,53.5,51.3,99,93,61,30.00,29.90,14,3,14,0.00
2013-5-9,71.8,57.3,50.4,56.0,52.6,48.3,100,87,46,30.03,29.93,13,3,13,0.00
2013-5-10,73.2,57.2,46.0,59.1,52.4,45.8,99,87,50,30.04,29.94,12,3,12,0.00
2013-5-11,76.8,58.2,46.6,63.9,53.4,45.0,99,87,37,30.01,29.91,11,3,11,0.00
2013-5-12,84.4,61.8,46.8,63.4,51.1,26.6,100,77,16,29.98,29.86,12,2,12,0.00
2013-5-13,81.9,61.3,50.4,61.1,50.7,20.4,100,78,15,29.95,29.80,14,3,14,0.00
2013-5-14,69.1,57.3,49.5,57.6,53.5,48.8,100,89,55,29.91,29.82,14,3,14,0.00
2013-5-15,72.0,56.6,43.9,56.6,47.9,40.2,100,78,35,29.94,29.86,14,2,14,0.00
2013-5-16,70.3,56.0,47.8,61.4,54.0,47.4,100,94,62,29.91,29.82,14,2,14,0.01
2013-5-17,74.1,57.2,45.0,57.6,47.3,32.1,100,76,28,29.95,29.85,14,2,14,0.00
2013-5-18,76.6,57.4,45.9,55.8,47.0,31.8,100,76,23,30.01,29.93,13,2,13,0.00
2013-5-19,82.8,60.4,45.5,59.3,45.3,9.6,100,71,10,29.98,29.80,11,3,11,0.00
2013-5-20,84.2,62.1,44.6,60.7,43.9,6.9,100,65,10,29.86,29.75,11,3,11,0.00
2013-5-21,78.1,58.8,46.2,56.7,41.3,2.0,99,66,10,29.87,29.76,20,4,20,0.00
2013-5-22,70.7,53.9,39.2,49.9,25.9,-2.9,100,54,10,29.86,29.74,17,4,17,0.00
2013-5-23,66.4,52.1,37.2,48.5,37.4,18.9,100,66,20,29.87,29.80,14,3,14,0.00
2013-5-24,72.0,53.3,37.9,52.1,39.5,3.6,100,72,10,29.88,29.80,14,3,14,0.00
2013-5-25,70.2,53.6,39.6,52.1,44.5,36.4,100,77,35,29.94,29.85,14,3,14,0.00
2013-5-26,72.3,56.7,45.3,56.3,51.9,45.1,100,86,52,30.00,29.90,12,3,12,0.00
2013-5-27,67.6,56.9,45.7,62.0,54.0,45.4,100,91,67,30.00,29.87,11,2,11,0.00
2013-5-28,77.0,61.9,52.3,63.4,55.0,47.2,100,82,40,29.88,29.74,12,3,12,0.00
2013-5-29,79.3,61.2,48.4,58.4,48.8,23.3,99,73,17,29.83,29.72,14,3,14,0.00
2013-5-30,77.2,57.8,42.8,55.0,44.1,25.1,100,71,18,29.85,29.78,12,3,12,0.00
2013-5-31,84.0,60.4,43.0,58.7,44.5,24.3,100,68,16,29.86,29.74,11,3,11,0.00
2013-6-1,81.9,61.1,46.4,60.4,47.8,23.1,100,70,17,29.80,29.62,11,3,11,0.00
2013-6-2,66.2,55.8,46.8,57.6,52.1,46.5,100,89,59,29.65,29.59,14,3,14,0.00
2013-6-3,62.8,56.2,50.4,55.9,52.4,48.8,100,88,62,29.75,29.61,20,5,20,0.00
2013-6-4,64.6,55.2,45.9,56.9,52.0,45.6,100,90,67,29.84,29.72,17,4,17,0.00
2013-6-5,60.8,57.3,49.6,57.3,53.1,49.4,99,87,76,29.86,29.82,11,4,11,0.00
2013-6-6,60.8,60.8,60.8,53.1,53.1,53.1,76,76,76,29.85,29.85,7,7,11,0.00
2013-6-7,75.6,60.6,52.5,53.1,53.0,41.1,99,77,29,30.09,29.85,7,7,11,0.00
2013-6-8,61.3,56.3,50.4,60.2,56.0,50.1,100,99,90,30.00,29.90,16,6,16,0.00
2013-6-9,62.1,59.2,55.6,61.3,58.1,55.3,100,96,86,30.05,29.96,17,7,17,0.01
2013-6-10,67.3,61.7,55.8,56.9,52.9,47.8,100,74,52,30.10,30.00,20,4,20,0.00
2013-6-11,72.0,60.5,53.2,57.6,54.3,49.2,100,82,47,30.11,30.03,14,3,14,0.00
2013-6-12,78.4,59.8,46.6,60.5,49.8,39.3,100,76,28,30.16,30.05,12,3,12,0.00
2013-6-13,82.6,60.0,44.6,54.5,43.5,9.9,100,68,10,30.23,30.11,11,3,11,0.00
2013-6-14,84.2,60.8,44.6,58.2,45.1,9.1,100,69,10,30.13,29.94,12,3,12,0.00
2013-6-15,62.4,55.3,47.7,55.0,52.3,47.4,100,90,68,30.16,29.99,13,3,13,0.00
2013-6-16,77.4,60.0,51.1,56.8,51.9,38.1,99,79,31,30.23,30.15,11,4,11,0.00
2013-6-17,84.0,63.4,46.6,60.2,48.5,28.4,99,69,18,30.23,30.12,12,3,12,0.00
2013-6-18,77.4,61.1,50.9,58.5,43.9,11.4,100,65,12,30.18,30.09,26,5,26,0.00
2013-6-19,80.1,61.8,44.1,56.2,37.2,11.9,100,54,12,30.18,30.09,14,4,14,0.00
2013-6-20,83.8,60.5,43.5,56.2,42.2,10.2,100,64,10,30.15,30.05,14,3,14,0.00
2013-6-21,80.1,61.7,45.0,58.9,46.2,27.4,100,65,19,30.12,30.03,14,4,14,0.00
2013-6-22,79.3,60.0,45.0,57.6,48.9,33.0,100,74,22,30.08,29.97,14,3,14,0.00
2013-6-23,64.4,58.3,52.9,60.7,57.6,52.4,100,98,78,30.05,29.96,11,2,11,0.01
2013-6-24,60.3,58.8,57.2,60.0,58.6,56.9,99,99,99,30.07,29.93,8,2,8,0.05
2013-6-25,69.1,61.6,58.1,68.8,61.3,57.8,99,99,99,30.15,30.06,9,2,9,0.02
2013-6-26,84.4,68.2,60.1,70.6,61.7,53.6,100,84,38,30.17,30.08,12,3,12,0.00
2013-6-27,92.8,69.9,55.6,70.9,53.4,17.3,100,70,10,30.18,30.11,10,3,10,0.00
2013-6-28,90.5,68.4,55.9,67.9,55.0,31.4,100,71,17,30.15,30.02,12,3,12,0.00
2013-6-29,89.4,68.2,54.0,65.2,53.2,30.5,100,69,17,30.07,29.93,15,4,15,0.00
2013-6-30,82.9,65.3,51.8,65.2,55.0,45.0,100,76,32,30.00,29.89,12,4,12,0.00
2013-7-1,77.9,64.1,52.9,63.6,56.1,52.1,99,79,41,30.03,29.94,14,3,14,0.00
2013-7-2,73.8,60.0,56.1,63.9,58.1,55.6,99,94,54,30.10,29.98,15,2,15,0.00
2013-7-3,72.9,62.7,57.4,66.6,59.1,55.4,100,90,56,30.07,29.91,11,4,11,0.00
2013-7-4,68.9,61.7,55.2,65.0,60.0,54.9,100,94,72,29.95,29.88,11,4,11,0.00
2013-7-5,69.3,61.3,51.1,60.8,55.6,50.8,100,84,58,29.97,29.90,13,4,13,0.00
2013-7-6,62.4,57.5,54.3,58.6,55.7,53.5,100,94,76,29.99,29.93,14,4,14,0.01
2013-7-7,63.0,57.6,54.1,57.5,55.4,53.1,100,93,73,30.02,29.94,16,4,16,0.00
2013-7-8,64.9,58.7,54.7,58.0,55.3,51.5,100,89,67,30.12,30.01,14,4,14,0.00
2013-7-9,72.0,59.7,51.8,60.6,55.0,50.7,99,87,51,30.16,30.08,11,4,11,0.00
2013-7-10,63.5,57.3,54.5,60.9,56.5,54.2,100,97,79,30.14,30.07,13,3,14,0.00
2013-7-11,63.5,57.6,53.6,59.6,55.2,53.3,100,92,73,30.10,30.05,14,4,14,0.00
2013-7-12,66.4,57.6,53.1,58.3,54.7,52.5,100,91,64,30.10,30.03,14,4,14,0.00
2013-7-13,66.0,57.4,52.3,59.1,54.6,52.1,100,91,67,30.12,30.05,14,4,14,0.00
2013-7-14,68.2,57.7,52.7,59.1,55.0,52.4,100,92,61,30.15,30.05,14,4,14,0.00
2013-7-15,62.4,55.0,53.4,57.3,54.1,52.3,100,97,71,30.08,30.04,14,3,14,0.01
2013-7-18,61.5,59.0,56.5,55.6,54.5,53.4,97,86,75,30.11,30.05,6,5,14,0.01
2013-7-19,68.7,56.3,52.7,55.5,53.2,52.2,100,91,58,30.10,29.98,8,2,8,0.00
2013-7-20,61.3,55.9,53.1,60.3,55.1,52.8,100,97,86,30.02,29.95,11,3,11,0.00
2013-7-21,66.2,57.8,52.7,60.2,54.7,52.4,100,90,67,30.05,29.93,13,4,13,0.00
2013-7-22,68.7,61.4,56.3,63.2,58.8,56.0,100,92,71,30.10,30.02,12,3,12,0.00
2013-7-23,68.4,61.4,56.7,62.7,57.7,55.1,100,89,66,30.15,30.08,12,4,12,0.00
2013-7-24,75.6,56.4,55.6,56.4,56.0,41.1,99,99,29,30.11,29.91,4,1,4,0.00
2013-7-25,61.5,57.4,54.9,61.2,56.9,54.6,100,98,90,30.01,29.91,13,4,13,0.00
2013-7-26,61.5,57.6,55.4,60.3,57.1,55.1,100,98,91,30.09,29.99,12,3,12,0.00
2013-7-27,62.1,57.4,55.0,61.1,56.8,54.8,100,98,85,30.01,29.86,14,4,14,0.01
2013-7-28,61.3,57.0,54.1,59.3,56.3,53.9,100,98,89,29.89,29.83,14,3,14,0.01
2013-7-29,64.4,59.8,56.1,57.4,55.2,53.3,100,85,70,30.01,29.85,17,5,17,0.00
2013-7-30,64.8,59.6,56.5,55.1,53.6,50.7,95,82,63,30.08,30.00,19,5,19,0.00
2013-7-31,69.8,60.0,51.6,55.5,53.4,51.0,100,81,54,30.08,29.98,15,4,15,0.00
2013-8-1,79.5,63.1,48.9,56.6,49.7,39.4,100,68,28,30.06,29.92,11,3,11,0.00
2013-8-2,73.6,57.7,46.4,59.2,51.9,46.1,100,84,44,29.97,29.88,14,3,14,0.00
2013-8-3,75.6,55.5,53.4,56.0,54.9,41.1,100,98,29,29.98,29.91,8,3,8,0.00
2013-8-4,61.7,56.5,53.4,58.4,54.7,53.1,100,94,76,29.99,29.94,12,3,12,0.01
2013-8-5,65.7,58.0,53.2,58.9,54.7,52.0,100,90,64,29.99,29.91,14,4,15,0.00
2013-8-6,61.5,57.1,54.0,58.2,55.8,53.5,100,96,80,30.02,29.93,14,4,14,0.00
2013-8-7,56.8,56.7,56.3,56.6,56.4,56.0,99,99,99,30.03,30.01,4,1,4,0.00
2013-8-8,64.9,59.7,55.9,59.8,56.5,53.2,99,90,67,30.00,29.91,12,4,12,0.01
2013-8-9,65.7,60.0,56.1,58.9,56.7,53.1,100,90,64,29.95,29.88,11,4,11,0.00
2013-8-10,69.1,61.4,57.6,61.4,57.7,54.9,99,89,61,30.00,29.94,13,4,13,0.00
2013-8-11,72.9,60.8,56.7,60.5,56.8,53.7,99,88,51,29.98,29.91,8,3,8,0.00
2013-8-12,66.2,59.0,55.4,60.3,56.6,54.9,99,92,67,29.97,29.91,10,3,10,0.00
2013-8-13,70.3,60.0,52.7,60.3,54.6,52.1,99,84,58,29.95,29.87,11,3,11,0.00
2013-8-14,82.0,63.0,49.1,60.7,52.6,34.3,99,75,23,29.95,29.83,12,4,12,0.00
2013-8-15,90.5,70.2,52.0,66.8,53.7,33.6,100,66,18,29.91,29.83,11,4,11,0.00
2013-8-16,88.3,67.5,54.3,66.3,55.8,44.3,100,73,27,29.94,29.86,12,3,12,0.00
2013-8-17,80.1,62.9,55.8,62.4,56.8,50.5,100,83,39,29.96,29.83,11,2,11,0.00
2013-8-18,68.4,60.5,55.4,63.2,57.5,54.9,100,91,65,29.87,29.76,11,3,11,0.00
2013-8-19,67.3,60.1,55.2,61.2,57.4,54.8,100,92,69,29.90,29.79,15,4,15,0.00
2013-8-20,65.3,59.2,55.4,60.5,56.7,55.1,99,92,72,29.89,29.82,13,4,13,0.00
2013-8-21,67.1,60.3,55.9,57.3,55.0,50.4,100,84,58,29.91,29.83,14,4,14,0.00
2013-8-22,70.9,61.2,51.1,59.8,54.1,50.4,100,80,54,29.94,29.83,15,3,15,0.00
2013-8-23,79.5,62.1,54.7,58.8,54.9,46.4,100,81,35,29.89,29.75,11,3,11,0.00
2013-8-24,85.1,63.6,51.3,62.5,53.8,41.6,99,76,25,29.87,29.77,11,3,11,0.00
2013-8-25,73.2,62.8,54.9,65.2,58.2,54.6,100,87,58,29.91,29.84,15,3,15,0.00
2013-8-26,80.6,65.4,56.3,62.2,56.1,46.1,100,77,34,29.96,29.82,13,3,13,0.00
2013-8-27,83.8,64.4,51.1,62.5,51.8,35.1,100,71,22,29.87,29.74,14,3,14,0.00
2013-8-28,82.4,63.4,50.5,65.5,55.2,43.4,100,80,29,29.91,29.81,13,3,13,0.00
2013-8-29,85.3,66.7,57.9,67.7,58.6,49.5,99,80,33,30.00,29.90,14,3,14,0.00
2013-8-30,94.3,68.5,53.8,70.3,53.5,19.1,100,69,10,29.99,29.83,13,3,13,0.00
2013-8-31,86.7,65.7,59.7,58.3,52.4,21.2,91,71,13,29.99,29.89,11,1,11,12.30
2013-9-1,86.7,66.9,57.2,63.2,53.6,15.4,100,72,12,29.96,29.88,13,3,13,0.00
2013-9-2,81.0,68.4,62.1,60.5,57.8,50.0,89,72,39,29.98,29.88,12,2,12,0.00
2013-9-3,83.3,69.5,55.8,67.9,48.8,19.1,100,62,13,30.02,29.91,12,4,12,0.00
2013-9-4,86.2,69.0,52.0,63.4,47.6,21.6,100,59,13,30.06,29.93,11,4,11,0.00
2013-9-5,85.5,68.0,50.4,64.5,49.2,32.1,100,62,19,30.05,29.93,11,4,11,0.00
2013-9-6,91.8,71.6,49.8,65.0,39.8,11.8,100,50,10,30.03,29.82,11,4,11,0.00
2013-9-7,73.6,63.5,52.3,58.7,51.7,44.5,99,70,39,29.91,29.85,11,3,11,0.00
2013-9-8,65.8,60.1,56.7,61.1,57.7,55.4,100,93,71,29.91,29.81,13,4,13,0.00
2013-9-9,65.1,60.2,55.4,62.0,57.7,55.1,100,92,73,29.84,29.77,11,4,11,0.00
2013-9-10,64.2,60.1,56.1,62.0,58.9,55.8,100,96,85,29.93,29.80,11,4,11,0.01
2013-9-11,67.5,59.0,53.8,60.6,56.5,53.1,100,92,63,30.03,29.95,10,1,10,0.00
2013-9-12,73.8,62.4,52.0,62.5,57.5,51.7,100,86,54,30.00,29.90,12,3,12,0.00
2013-9-13,77.7,62.5,54.3,63.4,56.1,49.8,100,83,41,29.94,29.78,11,2,11,0.00
2013-9-14,78.8,63.0,54.0,62.1,53.6,45.5,99,77,34,29.86,29.74,12,3,12,0.00
2013-9-15,84.7,62.1,49.1,60.4,51.8,39.9,100,76,24,29.89,29.80,11,2,11,0.00
2013-9-16,75.4,66.6,50.9,64.4,54.0,50.6,100,69,48,29.92,29.86,10,4,10,0.00
2013-9-17,86.4,71.7,54.7,53.3,52.3,30.5,91,53,17,29.95,29.86,5,4,10,0.00
2013-9-18,80.2,63.0,47.3,60.5,47.1,30.0,100,65,21,29.97,29.85,13,3,13,0.00
2013-9-19,90.5,62.2,45.5,56.0,40.2,8.2,100,63,10,29.92,29.78,11,2,11,0.00
2013-9-20,66.7,58.5,46.9,62.1,55.0,45.8,100,89,63,29.94,29.83,10,2,10,0.00
2013-9-21,64.2,59.8,52.3,63.9,59.5,51.3,99,99,99,29.98,29.89,14,3,14,0.12
2013-9-22,75.4,58.3,47.3,61.2,52.6,43.6,100,85,36,30.06,29.97,10,2,10,0.00
2013-9-23,84.6,63.9,47.8,66.4,46.8,24.9,99,66,15,30.06,29.95,13,2,13,0.00
2013-9-24,78.6,65.6,0.0,65.5,47.9,40.4,100,61,29,30.05,29.93,9,4,9,0.00
2013-9-29,68.5,61.8,57.9,60.8,58.7,57.2,98,89,67,29.85,29.80,4,0,6,0.00
2013-9-30,80.4,63.1,50.7,66.2,57.5,50.0,98,83,43,29.85,29.68,5,0,6,0.00
2013-10-1,76.3,62.0,51.1,59.0,54.3,44.6,98,79,37,29.80,29.68,5,0,6,0.00
2013-10-2,82.4,58.9,46.0,57.2,48.9,44.6,98,75,29,29.80,29.68,4,0,6,0.00
2013-10-3,80.1,56.8,43.0,59.0,39.0,26.9,98,60,20,29.83,29.68,10,1,13,0.00
2013-10-4,88.7,62.1,41.7,42.8,36.0,26.8,88,45,16,29.85,29.71,6,0,9,0.00
2013-10-5,88.3,62.2,0.0,35.6,28.9,0.0,49,31,13,29.94,29.83,5,0,8,0.00
2013-10-6,83.5,60.8,45.1,37.4,28.5,23.3,49,32,16,29.85,29.77,7,0,8,0.00
2013-10-7,72.1,57.5,42.6,50.0,35.7,22.6,97,48,22,29.77,29.65,6,1,8,0.00
2013-10-8,60.4,50.2,40.5,51.8,47.0,41.0,98,89,63,29.68,29.50,6,1,8,0.00
2013-10-9,63.0,52.9,43.3,50.0,44.1,39.2,95,74,43,29.56,29.41,7,1,8,0.00
2013-10-10,59.7,50.1,41.5,50.0,46.4,41.0,98,87,65,29.80,29.56,6,1,8,0.00
2013-10-11,62.6,53.9,46.8,51.8,48.6,46.4,98,83,60,29.85,29.74,7,1,8,0.00
2013-10-12,65.3,51.5,45.9,53.6,48.9,44.6,98,90,58,29.80,29.68,6,1,8,0.00
2013-10-13,68.4,52.7,43.5,55.4,49.2,42.8,98,88,51,29.83,29.71,6,1,8,0.00
2013-10-14,83.1,60.3,42.8,59.0,43.6,37.4,98,63,21,29.85,29.71,7,1,10,0.00
2013-10-15,89.2,64.5,44.8,44.6,37.6,32.0,76,43,18,29.80,29.65,6,0,8,0.00
2013-10-16,85.1,62.0,47.3,41.0,34.8,28.0,56,40,19,29.94,29.74,7,0,10,0.19
2013-10-17,77.2,52.4,44.8,51.1,39.3,27.9,88,64,19,29.96,29.83,8,1,8,0.00
2013-10-18,80.4,55.8,40.8,52.0,40.5,21.4,100,66,16,29.94,29.85,12,2,12,0.00
2013-10-19,73.0,52.3,39.0,54.4,45.5,-10.9,100,83,30,29.96,29.89,11,2,11,0.00
2013-10-20,66.7,51.8,43.9,54.4,48.9,43.4,100,91,59,29.94,29.80,14,2,14,0.00
2013-10-21,63.0,51.4,45.5,53.5,49.4,44.7,100,94,69,29.90,29.82,11,2,11,0.00
2013-10-22,62.8,50.7,46.2,52.9,49.6,45.2,100,96,66,29.91,29.84,11,2,11,0.00
2013-10-23,58.5,50.6,47.3,53.6,50.0,47.0,100,98,84,29.88,29.82,9,2,9,0.00
2013-10-24,55.9,51.2,48.9,51.2,49.9,-11.6,99,95,83,29.99,29.86,7,1,7,0.00
2013-10-25,68.2,49.4,40.3,52.9,46.8,40.0,100,92,55,30.06,29.96,9,1,9,0.00
2013-10-26,63.5,51.0,40.8,55.8,48.2,40.4,100,92,68,30.03,29.91,10,2,10,0.00
2013-10-27,62.6,51.9,46.6,52.5,49.0,44.5,100,91,68,29.94,29.64,20,3,20,0.00
2013-10-28,64.0,55.6,50.7,53.1,47.1,38.7,100,76,44,29.77,29.59,21,4,21,0.00
2013-10-29,60.6,52.7,43.3,54.4,50.6,42.8,100,93,63,29.95,29.76,12,2,12,0.43
2013-10-30,67.6,50.5,39.7,55.3,45.1,39.5,100,85,48,30.04,29.93,10,1,10,0.00
2013-10-31,72.5,53.1,40.1,52.8,44.8,39.8,100,79,40,30.06,29.93,11,1,11,0.00
2013-11-1,80.1,55.5,41.2,51.2,42.3,29.6,100,71,21,30.01,29.89,11,1,11,0.00
2013-11-2,70.5,51.3,39.0,53.6,44.8,38.8,100,82,38,29.91,29.80,11,2,11,0.00
2013-11-3,70.9,51.3,38.7,53.1,35.9,9.5,100,68,13,29.93,29.78,11,2,11,0.00
2013-11-4,71.4,50.0,34.5,41.9,31.5,7.2,97,60,12,29.94,29.79,11,2,11,0.00
2013-11-5,72.7,51.2,37.2,45.7,35.5,19.9,100,65,18,30.11,29.93,10,1,10,0.00
2013-11-6,80.4,56.0,39.7,41.2,30.7,7.2,86,50,10,30.13,30.03,9,1,9,0.00
2013-11-7,74.5,54.3,43.5,50.9,38.7,25.7,100,62,25,30.05,29.94,8,1,8,0.00
2013-11-8,79.0,52.6,38.8,53.0,44.4,36.8,100,80,27,29.97,29.82,8,1,8,0.00
2013-11-9,71.6,52.3,41.0,58.0,47.9,33.8,100,88,31,29.95,29.85,16,2,16,0.00
2013-11-10,62.2,51.7,43.2,53.6,48.7,-15.8,100,91,67,30.02,29.92,14,2,14,0.00
2013-11-11,70.7,54.1,41.9,53.1,48.2,37.9,100,84,35,30.06,29.96,8,1,8,0.00
2013-11-12,76.1,57.8,45.3,53.7,47.8,40.8,100,74,35,30.14,30.02,8,1,8,0.00
2013-11-13,73.4,54.0,42.6,53.8,47.2,42.3,100,83,38,30.13,29.98,8,2,8,0.00
2013-11-14,61.7,49.1,42.3,54.2,47.6,42.0,100,96,73,30.01,29.80,11,2,11,0.00
2013-11-15,62.2,48.5,39.6,55.0,44.7,39.3,100,89,54,29.80,29.61,9,1,9,0.01
2013-11-16,64.2,48.5,38.7,51.4,44.0,38.4,100,87,51,29.84,29.69,11,1,11,0.00
2013-11-17,59.9,48.8,42.3,51.1,45.7,42.0,100,91,70,30.00,29.83,8,1,9,0.00
2013-11-18,59.0,49.2,41.0,50.1,46.1,40.6,100,90,65,30.05,29.98,10,1,10,0.00
2013-11-19,62.8,52.7,42.4,53.8,49.7,42.2,100,91,68,30.02,29.86,9,1,9,0.26
2013-11-20,59.2,55.5,49.8,58.2,54.8,49.4,100,98,95,29.87,29.74,5,1,5,0.28
2013-11-21,64.2,50.6,38.3,53.8,46.4,30.7,100,88,37,29.84,29.76,13,1,13,0.00
2013-11-22,61.7,43.0,34.3,37.9,34.2,26.5,100,79,30,29.91,29.80,7,2,7,0.00
2013-11-23,64.9,47.2,37.8,52.0,41.0,34.3,100,82,36,30.01,29.85,14,1,14,0.00
2013-11-24,69.6,46.7,35.1,49.7,40.1,34.4,100,83,34,30.14,30.00,9,1,9,0.00
2013-11-25,70.9,48.2,36.1,44.5,39.8,35.2,100,79,30,30.20,30.11,6,1,6,0.00
2013-11-26,72.0,49.3,40.1,45.2,42.3,39.1,100,81,33,30.13,29.91,2,0,2,0.00
2013-11-27,66.2,50.1,41.4,46.7,43.5,37.1,100,82,40,29.91,29.72,11,1,11,0.00
2013-11-28,67.5,51.1,43.0,48.6,43.1,37.3,100,79,41,29.97,29.73,10,1,10,0.00
2013-11-29,62.4,46.6,43.3,52.9,44.9,-10.5,100,95,12,30.11,29.96,4,0,4,0.00
2013-11-30,70.7,48.3,36.3,51.9,43.6,35.4,100,87,37,30.15,30.06,9,1,9,0.00
2013-12-1,73.9,51.2,37.9,55.5,43.1,37.5,100,79,35,30.21,30.08,8,1,8,0.00
2013-12-2,70.2,49.5,38.3,52.9,44.6,37.7,100,87,43,30.12,29.87,10,1,10,0.00
2013-12-3,58.1,47.1,31.8,52.0,37.9,28.7,100,75,39,29.88,29.72,21,3,21,0.00
2013-12-4,53.8,37.2,26.8,31.4,26.7,17.6,100,72,29,29.96,29.82,8,1,8,0.00
2013-12-5,51.1,33.9,23.4,34.0,24.1,15.6,93,72,28,30.07,29.95,11,1,11,0.00
2013-12-6,54.9,40.9,24.4,50.7,33.9,21.7,100,79,48,30.10,29.84,18,3,18,0.14
2013-12-7,53.2,41.8,27.0,51.3,32.2,19.0,100,74,31,30.13,29.79,27,5,27,0.15
2013-12-8,51.4,34.7,25.0,35.5,25.3,19.8,99,73,31,30.19,30.06,8,1,8,0.00
2013-12-9,60.3,35.9,22.6,27.3,18.7,6.2,86,60,16,30.27,30.18,13,2,13,0.00
2013-12-10,66.2,40.1,24.8,31.1,21.0,2.4,83,57,12,30.27,30.05,11,1,11,0.00
2013-12-11,67.1,43.0,28.9,31.7,25.2,2.4,82,59,11,30.09,30.02,11,1,11,0.00
2013-12-12,66.6,42.1,29.8,36.8,30.2,19.3,100,70,22,30.14,30.05,8,1,8,0.00
2013-12-13,59.4,41.6,30.7,46.9,37.4,30.3,100,88,54,30.22,30.11,9,1,9,0.00
2013-12-14,68.4,45.4,31.8,44.3,35.6,28.1,100,75,30,30.26,30.15,8,1,8,0.00
2013-12-15,75.6,48.9,33.4,36.9,30.2,8.8,88,59,14,30.22,30.07,7,1,7,0.00
2013-12-16,75.2,53.8,40.1,35.7,28.8,11.4,71,47,12,30.08,29.96,3,1,3,0.00
2013-12-17,80.6,55.5,42.1,40.9,32.2,10.1,71,49,11,30.02,29.88,11,1,11,0.00
2013-12-18,54.7,49.9,43.7,51.2,46.4,40.0,100,88,66,29.91,29.68,10,2,10,0.00
2013-12-19,61.3,46.6,34.2,45.8,36.3,26.3,100,73,32,29.81,29.62,11,2,11,0.00
2013-12-20,61.9,42.0,30.2,35.6,26.3,6.4,85,61,17,29.89,29.80,9,1,9,0.00
2013-12-21,64.4,43.8,32.4,41.9,33.0,24.6,100,70,35,29.97,29.84,9,1,9,0.00
2013-12-22,64.4,45.9,34.7,51.8,42.2,34.0,100,90,46,30.18,29.96,8,1,8,0.00
2013-12-23,68.4,46.9,36.0,52.9,40.9,35.2,100,84,41,30.26,30.17,9,1,9,0.00
2013-12-24,73.2,49.6,36.5,45.2,38.7,33.0,100,74,28,30.20,30.05,8,1,8,0.00
2013-12-25,81.9,48.2,35.8,39.6,35.4,16.0,97,71,13,30.13,29.91,8,0,8,0.00
2013-12-26,85.1,53.4,37.2,38.7,31.2,8.4,89,57,10,29.93,29.82,12,1,12,0.00
2013-12-27,75.0,51.3,36.1,38.7,30.4,10.0,80,52,12,29.91,29.80,4,0,5,0.00
2013-12-28,72.7,46.7,33.6,44.7,36.0,30.6,100,71,29,29.83,29.71,8,1,8,0.00
2013-12-29,77.2,48.2,33.6,36.1,26.1,3.1,84,55,10,29.88,29.78,9,1,9,1.51
2013-12-30,45.1,37.0,34.0,30.7,28.0,24.3,76,70,55,29.96,29.87,2,0,2,0.08
2013-12-31,66.4,44.7,31.8,42.4,33.5,24.8,100,70,29,29.98,29.83,51,1,51,0.00
2014-1-1,70.0,47.9,32.7,48.8,35.5,22.4,100,70,31,29.92,29.80,4,0,4,0.00
2014-1-2,70.7,50.0,37.2,39.1,34.6,20.8,82,60,20,29.85,29.74,8,1,8,0.00